Time;durP1;ratioP1;P1;durP2;ratioP2;P2;SDS_P1;SDS_P2;PMS_P1;PMS_P2;Temp;Humidity;BMP_temperature;BMP_pressure;BME280_temperature;BME280_humidity;BME280_pressure;Samples;Min_cycle;Max_cycle;Signal;HPM_P1;HPM_P2
2022/09/30 00:02:19;;;;;;;21.80;13.80;;;;;;;14.28;100.00;99428.97;1794835;80;20991;-66
2022/09/30 00:04:45;;;;;;;22.95;13.80;;;;;;;14.26;100.00;99427.77;1794552;80;21077;-66
2022/09/30 00:07:12;;;;;;;20.80;14.23;;;;;;;14.22;100.00;99438.16;1794768;80;21629;-65
2022/09/30 00:09:41;;;;;;;20.97;14.55;;;;;;;14.19;100.00;99438.81;1794732;80;21061;-66
2022/09/30 00:12:09;;;;;;;17.73;12.98;;;;;;;14.19;100.00;99441.47;1794651;80;21140;-67
2022/09/30 00:14:36;;;;;;;19.02;12.63;;;;;;;14.39;100.00;99435.76;1794636;80;21079;-66
2022/09/30 00:17:02;;;;;;;17.35;12.88;;;;;;;14.41;100.00;99431.70;1774289;80;21003;-67
2022/09/30 00:19:30;;;;;;;17.73;12.05;;;;;;;14.46;100.00;99434.89;1794293;80;20974;-66
2022/09/30 00:21:56;;;;;;;18.95;13.18;;;;;;;14.46;100.00;99434.41;1794654;79;21052;-65
2022/09/30 00:24:23;;;;;;;17.57;13.00;;;;;;;14.40;100.00;99433.50;1794598;80;21074;-66
2022/09/30 00:26:50;;;;;;;15.08;11.15;;;;;;;14.38;100.00;99428.77;1794510;79;21752;-66
2022/09/30 00:29:16;;;;;;;19.95;12.10;;;;;;;14.41;100.00;99421.95;1794433;80;21019;-66
2022/09/30 00:31:43;;;;;;;18.40;12.15;;;;;;;14.34;100.00;99423.29;1794416;80;21624;-67
2022/09/30 00:34:11;;;;;;;15.35;12.05;;;;;;;14.44;100.00;99421.73;1794534;80;21070;-66
2022/09/30 00:36:47;;;;;;;16.80;11.25;;;;;;;14.38;100.00;99420.83;1794519;80;21054;-65
2022/09/30 00:39:23;;;;;;;18.60;12.05;;;;;;;14.43;100.00;99431.97;1794324;80;21139;-66
2022/09/30 00:41:54;;;;;;;16.85;11.63;;;;;;;14.42;100.00;99428.09;1794558;79;21026;-66
2022/09/30 00:44:54;;;;;;;14.90;11.12;;;;;;;14.44;100.00;99434.98;1794562;80;21049;-67
2022/09/30 00:47:52;;;;;;;15.10;10.58;;;;;;;14.45;100.00;99444.66;1794265;80;21041;-67
2022/09/30 00:50:47;;;;;;;15.15;10.63;;;;;;;14.47;100.00;99442.76;1794461;80;21089;-67
2022/09/30 00:53:26;;;;;;;16.97;10.53;;;;;;;14.50;100.00;99443.52;1796510;79;21105;-66
2022/09/30 00:56:09;;;;;;;16.52;11.40;;;;;;;14.50;100.00;99447.48;1774354;80;21046;-66
2022/09/30 00:58:56;;;;;;;12.82;9.63;;;;;;;14.53;100.00;99453.91;1775911;79;21058;-66
2022/09/30 01:01:23;;;;;;;13.55;9.65;;;;;;;14.47;100.00;99458.66;1725144;80;21068;-66
2022/09/30 01:03:54;;;;;;;15.38;10.48;;;;;;;14.44;100.00;99462.80;1773699;80;21004;-66
2022/09/30 01:06:22;;;;;;;15.65;10.90;;;;;;;14.45;100.00;99457.89;1773276;80;21146;-66
2022/09/30 01:08:48;;;;;;;15.18;10.15;;;;;;;14.54;100.00;99467.09;1773354;80;21085;-65
2022/09/30 01:11:15;;;;;;;12.65;9.93;;;;;;;14.56;100.00;99465.66;1773166;80;21042;-66
2022/09/30 01:13:44;;;;;;;17.52;9.90;;;;;;;14.55;100.00;99468.78;1773406;80;21058;-66
2022/09/30 01:16:38;;;;;;;14.65;9.55;;;;;;;14.63;100.00;99466.50;1773096;80;21228;-66
2022/09/30 01:19:46;;;;;;;12.82;9.25;;;;;;;14.62;100.00;99474.55;1773120;80;21125;-66
2022/09/30 01:22:39;;;;;;;13.83;9.60;;;;;;;14.60;100.00;99480.41;1773355;80;21038;-67
2022/09/30 01:26:01;;;;;;;11.95;9.75;;;;;;;14.66;100.00;99471.59;1773304;80;21541;-67
2022/09/30 01:28:51;;;;;;;13.88;9.75;;;;;;;14.62;100.00;99467.44;1773349;80;21174;-66
2022/09/30 01:31:48;;;;;;;15.18;10.03;;;;;;;14.63;100.00;99463.86;1773662;80;21061;-65
2022/09/30 01:34:54;;;;;;;13.83;10.00;;;;;;;14.61;100.00;99468.88;1773149;80;21147;-67
2022/09/30 01:37:28;;;;;;;17.67;8.68;;;;;;;14.56;100.00;99461.67;1773180;80;21029;-66
2022/09/30 01:40:06;;;;;;;13.08;8.95;;;;;;;14.57;100.00;99466.05;1773240;80;21038;-64
2022/09/30 01:43:03;;;;;;;15.55;9.75;;;;;;;14.62;100.00;99460.81;1772303;80;21077;-66
2022/09/30 01:45:43;;;;;;;16.95;10.55;;;;;;;14.67;100.00;99461.84;1773164;80;21522;-67
2022/09/30 01:48:34;;;;;;;13.08;9.63;;;;;;;14.61;100.00;99462.26;1773394;80;21139;-68
2022/09/30 01:51:22;;;;;;;13.88;9.43;;;;;;;14.58;100.00;99459.30;1754506;80;21985;-66
2022/09/30 01:54:00;;;;;;;13.58;8.50;;;;;;;14.57;100.00;99455.45;1773382;80;21088;-66
2022/09/30 01:56:43;;;;;;;13.38;9.63;;;;;;;14.54;100.00;99462.22;1773032;80;21486;-66
2022/09/30 01:59:20;;;;;;;12.65;9.33;;;;;;;14.48;100.00;99465.64;1773190;80;21681;-67
2022/09/30 02:01:55;;;;;;;15.53;9.15;;;;;;;14.49;100.00;99470.45;1770674;80;21257;-66
2022/09/30 02:04:29;;;;;;;15.32;10.72;;;;;;;14.53;100.00;99472.45;1772517;80;21049;-66
2022/09/30 02:06:59;;;;;;;13.22;10.10;;;;;;;14.48;100.00;99471.42;1750959;80;21092;-65
2022/09/30 02:09:49;;;;;;;15.85;9.65;;;;;;;14.43;100.00;99471.71;1773052;80;20978;-65
2022/09/30 02:12:20;;;;;;;16.17;9.50;;;;;;;14.44;100.00;99474.72;1773089;80;21061;-67
2022/09/30 02:15:07;;;;;;;15.83;9.85;;;;;;;14.41;100.00;99473.60;1773346;80;21061;-66
2022/09/30 02:17:45;;;;;;;14.90;10.20;;;;;;;14.46;100.00;99470.66;1773256;80;21835;-66
2022/09/30 02:20:20;;;;;;;15.83;10.70;;;;;;;14.48;100.00;99464.80;1773238;80;21061;-65
2022/09/30 02:22:49;;;;;;;14.18;10.85;;;;;;;14.47;100.00;99474.55;1772730;80;21084;-66
2022/09/30 02:25:20;;;;;;;14.68;9.68;;;;;;;14.47;100.00;99468.41;1773258;80;21510;-67
2022/09/30 02:27:52;;;;;;;15.48;10.28;;;;;;;14.43;100.00;99474.36;1773506;80;21751;-67
2022/09/30 02:30:19;;;;;;;14.78;10.18;;;;;;;14.39;100.00;99471.52;1771548;80;21045;-65
2022/09/30 02:32:52;;;;;;;14.33;10.18;;;;;;;14.36;100.00;99474.38;1750733;80;21025;-66
2022/09/30 02:35:29;;;;;;;15.72;10.23;;;;;;;14.32;100.00;99474.19;1773156;80;21498;-68
2022/09/30 02:38:07;;;;;;;15.98;10.30;;;;;;;14.36;100.00;99481.00;1773321;80;21030;-66
2022/09/30 02:40:47;;;;;;;16.07;11.15;;;;;;;14.37;100.00;99480.03;1773262;80;21956;-65
2022/09/30 02:43:13;;;;;;;15.75;10.72;;;;;;;14.39;100.00;99478.62;1773644;80;21530;-67
2022/09/30 02:45:57;;;;;;;15.23;10.63;;;;;;;14.41;100.00;99469.63;1794405;80;21112;-66
2022/09/30 02:48:49;;;;;;;20.45;10.63;;;;;;;14.41;100.00;99474.92;1794965;80;21030;-66
2022/09/30 02:51:42;;;;;;;17.90;10.68;;;;;;;14.40;100.00;99481.19;1776154;80;21038;-66
2022/09/30 02:54:33;;;;;;;19.82;11.15;;;;;;;14.45;100.00;99476.44;1772733;80;21114;-67
2022/09/30 02:57:36;;;;;;;18.37;10.50;;;;;;;14.45;100.00;99477.77;1773187;80;21038;-65
2022/09/30 03:00:05;;;;;;;16.23;11.75;;;;;;;14.43;100.00;99479.66;1727506;80;21049;-66
2022/09/30 03:02:33;;;;;;;12.55;10.50;;;;;;;14.41;100.00;99480.22;1773039;80;21569;-67
2022/09/30 03:04:59;;;;;;;17.65;11.30;;;;;;;14.43;100.00;99477.01;1773528;80;21057;-67
2022/09/30 03:07:26;;;;;;;21.33;11.88;;;;;;;14.48;100.00;99483.34;1773194;80;21252;-66
2022/09/30 03:09:57;;;;;;;21.50;12.55;;;;;;;14.52;100.00;99484.01;1773541;80;21533;-66
2022/09/30 03:12:52;;;;;;;17.35;11.88;;;;;;;14.52;100.00;99487.50;1773221;80;21077;-66
2022/09/30 03:15:30;;;;;;;16.52;11.68;;;;;;;14.50;100.00;99488.55;1773024;80;21660;-67
2022/09/30 03:18:26;;;;;;;17.50;11.50;;;;;;;14.41;100.00;99490.82;1773344;80;21069;-67
2022/09/30 03:20:59;;;;;;;21.85;13.40;;;;;;;14.41;100.00;99480.22;1772764;80;21350;-66
2022/09/30 03:23:43;;;;;;;21.62;12.70;;;;;;;14.43;100.00;99483.63;1773464;80;21097;-66
2022/09/30 03:26:34;;;;;;;21.30;13.72;;;;;;;14.44;100.00;99485.31;1766472;80;21109;-65
2022/09/30 03:29:22;;;;;;;14.73;11.63;;;;;;;14.45;100.00;99494.14;1773335;80;21010;-67
2022/09/30 03:32:28;;;;;;;18.17;13.00;;;;;;;14.42;100.00;99495.19;1773210;80;21053;-66
2022/09/30 03:35:25;;;;;;;20.82;12.93;;;;;;;14.41;100.00;99493.47;1773374;80;22942;-66
2022/09/30 03:38:18;;;;;;;19.85;13.13;;;;;;;14.40;100.00;99499.73;1773435;80;21620;-66
2022/09/30 03:41:14;;;;;;;25.65;17.37;;;;;;;14.41;100.00;99502.74;1773807;80;21049;-66
2022/09/30 03:43:52;;;;;;;26.48;20.17;;;;;;;14.47;100.00;99507.66;1776513;80;21037;-66
2022/09/30 03:46:41;;;;;;;23.80;18.95;;;;;;;14.48;100.00;99502.73;1794991;79;21573;-65
2022/09/30 03:49:13;;;;;;;28.05;19.05;;;;;;;14.44;100.00;99506.52;1794865;80;21167;-67
2022/09/30 03:51:39;;;;;;;31.95;19.77;;;;;;;14.41;100.00;99513.34;1795097;79;21479;-67
2022/09/30 03:54:09;;;;;;;23.32;17.23;;;;;;;14.39;100.00;99511.25;1794841;80;21495;-67
2022/09/30 03:56:41;;;;;;;29.82;19.30;;;;;;;14.37;100.00;99517.59;1794800;79;21062;-66
2022/09/30 03:59:05;;;;;;;25.65;18.35;;;;;;;14.40;100.00;99517.40;1794065;79;21079;-66
2022/09/30 04:01:31;;;;;;;28.25;19.85;;;;;;;14.42;100.00;99516.38;1794626;80;21701;-66
2022/09/30 04:03:58;;;;;;;27.25;18.87;;;;;;;14.46;100.00;99515.22;1794676;80;21000;-68
2022/09/30 04:06:25;;;;;;;20.00;14.80;;;;;;;14.48;100.00;99522.59;1794702;80;21002;-66
2022/09/30 04:08:55;;;;;;;22.82;15.68;;;;;;;14.50;100.00;99531.78;1794628;80;21086;-67
2022/09/30 04:11:23;;;;;;;22.95;15.55;;;;;;;14.51;100.00;99536.13;1794971;80;21085;-67
2022/09/30 04:13:50;;;;;;;25.62;16.05;;;;;;;14.53;100.00;99534.71;1794798;80;21135;-69
2022/09/30 04:16:17;;;;;;;23.92;15.20;;;;;;;14.55;100.00;99538.16;1794658;80;21523;-66
2022/09/30 04:18:45;;;;;;;25.60;18.30;;;;;;;14.52;100.00;99537.00;1794866;80;21078;-67
2022/09/30 04:21:13;;;;;;;26.33;17.07;;;;;;;14.47;100.00;99531.51;1795230;80;21022;-66
2022/09/30 04:23:40;;;;;;;26.82;16.70;;;;;;;14.51;100.00;99539.25;1795020;79;21542;-67
2022/09/30 04:26:10;;;;;;;28.05;17.98;;;;;;;14.55;100.00;99550.92;1794566;79;21230;-66
2022/09/30 04:28:36;;;;;;;24.20;15.68;;;;;;;14.47;100.00;99555.35;1794689;80;21022;-66
2022/09/30 04:31:05;;;;;;;26.33;17.05;;;;;;;14.47;100.00;99563.78;1794512;80;21089;-67
2022/09/30 04:33:31;;;;;;;25.80;16.73;;;;;;;14.46;100.00;99565.55;1724381;83;21511;-66
2022/09/30 04:35:59;;;;;;;29.90;17.17;;;;;;;14.53;100.00;99565.19;1724164;82;21042;-68
2022/09/30 04:38:25;;;;;;;27.95;17.48;;;;;;;14.53;100.00;99575.78;1724124;83;21112;-67
2022/09/30 04:40:53;;;;;;;24.55;16.48;;;;;;;14.53;100.00;99569.16;1794518;80;21034;-67
2022/09/30 04:43:22;;;;;;;30.57;18.17;;;;;;;14.59;100.00;99576.77;1794816;79;21050;-67
2022/09/30 04:45:48;;;;;;;26.02;16.17;;;;;;;14.55;100.00;99581.87;1768432;81;21013;-66
2022/09/30 04:48:15;;;;;;;26.25;16.70;;;;;;;14.53;100.00;99581.08;1768527;81;21231;-66
2022/09/30 04:50:42;;;;;;;29.55;18.62;;;;;;;14.55;100.00;99571.27;1768347;81;21485;-67
2022/09/30 04:53:11;;;;;;;31.27;19.48;;;;;;;14.57;100.00;99574.69;1768057;81;21058;-66
2022/09/30 04:55:37;;;;;;;26.00;15.90;;;;;;;14.56;100.00;99570.31;1751058;80;21033;-67
2022/09/30 04:58:04;;;;;;;30.52;17.70;;;;;;;14.55;100.00;99573.92;1778751;80;21087;-67
2022/09/30 05:00:30;;;;;;;29.32;18.27;;;;;;;14.56;100.00;99574.28;1778677;80;21043;-67
2022/09/30 05:02:57;;;;;;;31.10;17.30;;;;;;;14.58;100.00;99565.77;1778588;80;21315;-67
2022/09/30 05:05:24;;;;;;;33.48;20.68;;;;;;;14.55;100.00;99566.81;1779080;80;21047;-68
2022/09/30 05:07:52;;;;;;;32.50;18.65;;;;;;;14.58;100.00;99573.72;1778075;80;21083;-67
2022/09/30 05:10:20;;;;;;;30.77;20.27;;;;;;;14.59;100.00;99575.44;1778684;80;21545;-67
2022/09/30 05:12:57;;;;;;;41.35;22.70;;;;;;;14.63;100.00;99584.88;1778872;80;20992;-66
2022/09/30 05:15:24;;;;;;;33.13;18.23;;;;;;;14.66;100.00;99590.01;1778779;80;21235;-67
2022/09/30 05:17:52;;;;;;;35.60;19.80;;;;;;;14.66;100.00;99583.38;1778909;80;21008;-67
2022/09/30 05:20:19;;;;;;;35.58;22.82;;;;;;;14.69;100.00;99584.50;1778826;80;21058;-67
2022/09/30 05:22:46;;;;;;;43.33;23.65;;;;;;;14.73;100.00;99586.02;1778814;80;21051;-66
2022/09/30 05:25:14;;;;;;;37.10;21.27;;;;;;;14.71;100.00;99579.12;1778689;80;21031;-66
2022/09/30 05:27:41;;;;;;;40.83;22.15;;;;;;;14.73;100.00;99584.70;1778663;80;21995;-66
2022/09/30 05:30:09;;;;;;;38.20;20.60;;;;;;;14.80;100.00;99589.98;1778749;80;21047;-68
2022/09/30 05:32:37;;;;;;;30.85;19.48;;;;;;;14.86;100.00;99597.56;1778547;80;21045;-66
2022/09/30 05:35:04;;;;;;;38.10;19.05;;;;;;;14.85;100.00;99601.62;1778454;80;21027;-67
2022/09/30 05:37:33;;;;;;;36.08;20.45;;;;;;;14.90;100.00;99597.72;1778400;80;21551;-67
2022/09/30 05:39:59;;;;;;;35.75;19.50;;;;;;;14.95;100.00;99601.89;1750722;80;21857;-66
2022/09/30 05:42:26;;;;;;;29.90;19.30;;;;;;;15.05;100.00;99597.23;1778860;80;21038;-67
2022/09/30 05:44:53;;;;;;;31.68;19.40;;;;;;;15.07;100.00;99601.12;1795723;79;21062;-66
2022/09/30 05:47:20;;;;;;;40.35;23.55;;;;;;;15.05;100.00;99597.23;1734597;82;21113;-65
2022/09/30 05:49:46;;;;;;;39.60;22.22;;;;;;;15.09;100.00;99594.77;1734294;82;21034;-67
2022/09/30 05:52:13;;;;;;;38.95;22.77;;;;;;;15.12;100.00;99595.05;1734267;82;21086;-68
2022/09/30 05:54:40;;;;;;;34.63;20.62;;;;;;;15.15;100.00;99597.48;1734054;82;21038;-67
2022/09/30 05:57:07;;;;;;;37.38;20.48;;;;;;;15.17;100.00;99603.55;1730176;82;21003;-67
2022/09/30 05:59:34;;;;;;;34.58;21.90;;;;;;;15.21;100.00;99607.71;1729440;82;21019;-67
2022/09/30 06:02:00;;;;;;;32.95;19.98;;;;;;;15.27;100.00;99615.25;1729720;83;21557;-67
2022/09/30 06:04:27;;;;;;;35.25;20.77;;;;;;;15.30;100.00;99616.88;1729577;83;21246;-66
2022/09/30 06:06:53;;;;;;;44.77;24.30;;;;;;;15.31;100.00;99619.41;1729443;83;21078;-67
2022/09/30 06:09:20;;;;;;;37.35;22.27;;;;;;;15.35;100.00;99612.61;1729691;83;21160;-66
2022/09/30 06:11:46;;;;;;;32.65;20.68;;;;;;;15.35;100.00;99623.22;1729389;83;21050;-66
2022/09/30 06:14:15;;;;;;;31.80;21.25;;;;;;;15.38;100.00;99629.64;1729451;83;21097;-66
2022/09/30 06:16:43;;;;;;;32.98;21.90;;;;;;;15.43;100.00;99632.84;1729701;82;21082;-67
2022/09/30 06:19:10;;;;;;;33.15;21.45;;;;;;;15.49;100.00;99636.44;1729615;82;21043;-66
2022/09/30 06:21:38;;;;;;;35.65;20.40;;;;;;;15.47;100.00;99637.00;1729571;83;21562;-68
2022/09/30 06:24:08;;;;;;;34.70;21.17;;;;;;;15.53;100.00;99649.88;1729805;82;21622;-67
2022/09/30 06:26:34;;;;;;;33.78;21.57;;;;;;;15.51;100.00;99647.80;1729380;83;21066;-66
2022/09/30 06:29:00;;;;;;;35.50;22.50;;;;;;;15.54;100.00;99646.27;1729269;82;21153;-67
2022/09/30 06:31:29;;;;;;;31.82;20.30;;;;;;;15.55;100.00;99649.77;1729426;83;21102;-67
2022/09/30 06:33:56;;;;;;;29.80;18.25;;;;;;;15.66;100.00;99653.41;1729772;83;21050;-67
2022/09/30 06:36:23;;;;;;;33.50;22.93;;;;;;;15.71;100.00;99655.80;1729325;83;21165;-67
2022/09/30 06:38:51;;;;;;;37.95;22.82;;;;;;;15.77;100.00;99659.87;1729516;83;21054;-66
2022/09/30 06:41:18;;;;;;;43.02;23.73;;;;;;;15.85;100.00;99654.88;1729481;83;21132;-66
2022/09/30 06:43:46;;;;;;;39.65;28.25;;;;;;;15.93;100.00;99651.25;1727326;82;21050;-66
2022/09/30 06:46:12;;;;;;;40.58;27.60;;;;;;;16.02;100.00;99647.98;1717642;83;21071;-68
2022/09/30 06:48:39;;;;;;;47.80;30.50;;;;;;;16.04;100.00;99651.39;1721417;83;21100;-68
2022/09/30 06:51:10;;;;;;;46.37;30.82;;;;;;;16.03;100.00;99657.64;1720945;83;21202;-67
2022/09/30 06:53:38;;;;;;;53.50;31.07;;;;;;;16.03;100.00;99653.66;1720983;83;21637;-67
2022/09/30 06:56:05;;;;;;;44.80;28.35;;;;;;;16.03;100.00;99653.66;1719870;83;21422;-67
2022/09/30 06:58:33;;;;;;;44.98;30.30;;;;;;;16.01;100.00;99663.56;1745362;82;21044;-68
2022/09/30 07:01:02;;;;;;;48.83;30.17;;;;;;;16.02;100.00;99666.58;1745536;82;21091;-68
2022/09/30 07:03:32;;;;;;;38.58;26.75;;;;;;;16.05;100.00;99659.72;1745376;82;21086;-68
2022/09/30 07:06:01;;;;;;;38.80;26.15;;;;;;;16.04;100.00;99671.31;1745376;82;21788;-68
2022/09/30 07:08:30;;;;;;;36.63;26.05;;;;;;;15.98;100.00;99673.03;1745167;82;21122;-66
2022/09/30 07:11:03;;;;;;;37.28;25.02;;;;;;;16.01;100.00;99679.50;1745198;82;21047;-67
2022/09/30 07:13:33;;;;;;;44.45;28.23;;;;;;;16.05;100.00;99687.61;1745343;82;21106;-68
2022/09/30 07:16:00;;;;;;;40.20;29.77;;;;;;;16.03;100.00;99689.99;1745575;82;21082;-67
2022/09/30 07:18:27;;;;;;;40.65;27.58;;;;;;;16.02;100.00;99687.82;1745531;82;21320;-67
2022/09/30 07:20:55;;;;;;;37.17;27.37;;;;;;;16.08;100.00;99691.41;1745220;82;21085;-67
2022/09/30 07:23:22;;;;;;;42.43;29.95;;;;;;;16.22;100.00;99689.61;1745273;82;21028;-68
2022/09/30 07:25:55;;;;;;;42.45;29.60;;;;;;;16.29;100.00;99686.94;1745204;82;21590;-66
2022/09/30 07:28:30;;;;;;;36.10;26.30;;;;;;;16.31;100.00;99689.86;1745329;82;21071;-67
2022/09/30 07:30:56;;;;;;;42.62;28.67;;;;;;;16.39;100.00;99689.33;1745212;82;21168;-67
2022/09/30 07:33:23;;;;;;;41.75;28.10;;;;;;;16.47;100.00;99697.64;1745179;82;21398;-67
2022/09/30 07:35:52;;;;;;;38.80;27.10;;;;;;;16.57;100.00;99692.05;1745628;82;21031;-68
2022/09/30 07:38:20;;;;;;;39.55;25.68;;;;;;;16.69;100.00;99701.47;1719002;82;21016;-68
2022/09/30 07:41:00;;;;;;;36.33;26.75;;;;;;;16.81;100.00;99703.30;1745240;82;21059;-66
2022/09/30 07:43:33;;;;;;;35.33;25.17;;;;;;;16.95;100.00;99701.00;1745435;82;21113;-67
2022/09/30 07:46:16;;;;;;;35.68;25.68;;;;;;;17.11;100.00;99712.75;1763459;81;21033;-67
2022/09/30 07:48:46;;;;;;;31.77;24.12;;;;;;;17.20;100.00;99707.61;1740896;82;21089;-68
2022/09/30 07:51:20;;;;;;;34.20;23.83;;;;;;;17.34;100.00;99717.27;1737359;81;21562;-67
2022/09/30 07:53:50;;;;;;;34.90;26.05;;;;;;;17.28;100.00;99713.74;1745125;82;21022;-67
2022/09/30 07:56:17;;;;;;;24.65;17.90;;;;;;;17.30;100.00;99718.48;1760638;81;21247;-66
2022/09/30 07:58:44;;;;;;;38.38;27.37;;;;;;;17.32;100.00;99716.56;1732101;82;21577;-67
2022/09/30 08:01:11;;;;;;;34.45;24.10;;;;;;;17.33;100.00;99716.08;1803145;79;20979;-67
2022/09/30 08:03:40;;;;;;;32.15;24.02;;;;;;;17.36;100.00;99722.02;1803048;79;21092;-67
2022/09/30 08:06:13;;;;;;;37.75;26.52;;;;;;;17.46;100.00;99726.67;1802950;79;21085;-67
2022/09/30 08:08:40;;;;;;;31.05;23.65;;;;;;;17.43;100.00;99729.08;1803411;79;21839;-67
2022/09/30 08:11:06;;;;;;;27.60;21.55;;;;;;;17.43;100.00;99726.41;1802959;79;21669;-68
2022/09/30 08:13:33;;;;;;;29.87;20.77;;;;;;;17.46;100.00;99732.00;1803223;79;21033;-67
2022/09/30 08:15:59;;;;;;;28.07;21.42;;;;;;;17.40;100.00;99726.65;1803203;79;21041;-65
2022/09/30 08:18:27;;;;;;;30.35;23.45;;;;;;;17.27;100.00;99734.64;1803350;79;21037;-66
2022/09/30 08:20:53;;;;;;;27.20;19.70;;;;;;;17.23;100.00;99741.17;1803188;79;21836;-67
2022/09/30 08:23:21;;;;;;;27.22;20.37;;;;;;;17.17;100.00;99742.92;1802968;79;21025;-67
2022/09/30 08:25:47;;;;;;;26.27;19.02;;;;;;;17.17;100.00;99741.59;1803025;79;21018;-67
2022/09/30 08:28:14;;;;;;;24.37;20.15;;;;;;;17.17;100.00;99741.59;1732076;82;21006;-67
2022/09/30 08:30:41;;;;;;;27.07;20.27;;;;;;;17.26;100.00;99736.95;1732065;82;21061;-67
2022/09/30 08:33:07;;;;;;;26.23;19.87;;;;;;;17.35;100.00;99742.95;1732193;82;21227;-67
2022/09/30 08:35:35;;;;;;;28.17;20.57;;;;;;;17.42;100.00;99743.85;1732015;82;21070;-67
2022/09/30 08:38:02;;;;;;;26.60;18.87;;;;;;;17.45;100.00;99739.63;1731942;82;21035;-66
2022/09/30 08:40:31;;;;;;;27.25;20.12;;;;;;;17.48;100.00;99744.72;1731939;82;21050;-67
2022/09/30 08:43:25;;;;;;;31.40;20.68;;;;;;;17.48;100.00;99740.73;1732133;82;21081;-67
2022/09/30 08:46:00;;;;;;;26.42;19.20;;;;;;;17.41;100.00;99742.97;1683641;85;21624;-66
2022/09/30 08:48:42;;;;;;;27.20;19.27;;;;;;;17.53;100.00;99747.89;1686937;85;21630;-67
2022/09/30 08:51:26;;;;;;;24.23;18.70;;;;;;;17.63;100.00;99744.95;1747893;81;21649;-67
2022/09/30 08:53:53;;;;;;;23.55;18.15;;;;;;;17.71;100.00;99743.90;1748108;82;21525;-70
2022/09/30 08:56:24;;;;;;;29.55;19.42;;;;;;;17.76;100.00;99748.44;1747968;82;21084;-68
2022/09/30 08:58:54;;;;;;;24.27;18.92;;;;;;;17.77;100.00;99751.94;1747709;82;21867;-67
2022/09/30 09:01:37;;;;;;;20.32;14.73;;;;;;;17.77;100.00;99751.45;1747704;82;21088;-68
2022/09/30 09:04:05;;;;;;;31.07;20.25;;;;;;;17.73;100.00;99753.96;1732733;82;21096;-67
2022/09/30 09:06:43;;;;;;;27.17;18.02;;;;;;;17.73;100.00;99753.96;1748311;82;21033;-67
2022/09/30 09:09:38;;;;;;;23.15;18.55;;;;;;;17.79;100.00;99749.53;1748008;82;21072;-68
2022/09/30 09:12:16;;;;;;;24.60;18.35;;;;;;;17.82;100.00;99755.98;1747892;82;21301;-67
2022/09/30 09:15:15;;;;;;;25.65;20.48;;;;;;;17.91;100.00;99760.28;1741378;82;21101;-68
2022/09/30 09:18:25;;;;;;;31.90;22.20;;;;;;;17.98;100.00;99758.87;1748008;82;21065;-67
2022/09/30 09:20:59;;;;;;;23.40;18.42;;;;;;;18.05;100.00;99762.77;1748025;82;21073;-67
2022/09/30 09:23:27;;;;;;;25.95;19.77;;;;;;;18.06;100.00;99769.83;1747459;82;21706;-68
2022/09/30 09:25:54;;;;;;;25.20;19.57;;;;;;;18.08;100.00;99778.53;1747435;82;21265;-67
2022/09/30 09:29:04;;;;;;;26.52;19.42;;;;;;;18.12;100.00;99771.17;1747907;82;21268;-69
2022/09/30 09:31:31;;;;;;;24.95;19.35;;;;;;;18.18;100.00;99779.56;1747648;82;21064;-67
2022/09/30 09:34:02;;;;;;;29.20;19.40;;;;;;;18.28;100.00;99781.55;1747663;82;21100;-68
2022/09/30 09:36:58;;;;;;;24.00;19.27;;;;;;;18.35;100.00;99784.11;1747566;82;21041;-66
2022/09/30 09:39:56;;;;;;;24.20;17.92;;;;;;;18.35;100.00;99778.78;1747847;82;21327;-67
2022/09/30 09:42:34;;;;;;;22.07;16.95;;;;;;;18.33;100.00;99778.05;1744503;82;21547;-67
2022/09/30 09:45:27;;;;;;;21.12;16.70;;;;;;;18.40;100.00;99781.95;1780994;79;21038;-66
2022/09/30 09:47:56;;;;;;;23.35;18.20;;;;;;;18.52;100.00;99786.38;1795040;79;21547;-67
2022/09/30 09:50:32;;;;;;;27.00;20.25;;;;;;;18.64;100.00;99797.93;1795417;79;21055;-68
2022/09/30 09:53:16;;;;;;;25.97;18.45;;;;;;;18.71;100.00;99791.65;1794604;79;21303;-68
2022/09/30 09:55:43;;;;;;;25.75;18.25;;;;;;;18.82;100.00;99786.38;1722163;83;21062;-69
2022/09/30 09:58:13;;;;;;;24.72;16.93;;;;;;;18.86;100.00;99790.48;1794695;79;21602;-68
2022/09/30 10:03:19;;;;;;;25.23;16.32;;;;;;;19.01;100.00;99789.31;1794585;80;21026;-68
2022/09/30 10:06:07;;;;;;;24.77;18.60;;;;;;;19.05;100.00;99793.45;1790769;79;21821;-68
2022/09/30 10:11:02;;;;;;;30.95;20.55;;;;;;;18.79;100.00;99797.27;1796709;79;22696;-68
2022/09/30 10:13:43;;;;;;;28.42;21.12;;;;;;;18.69;100.00;99792.25;1756662;81;21045;-69
2022/09/30 10:16:26;;;;;;;;;;;;;;;18.56;100.00;99793.64;1759069;81;21107;-69
2022/09/30 10:18:52;;;;;;;30.75;20.92;;;;;;;18.56;100.00;99797.16;1756419;81;20432;-66
2022/09/30 10:21:25;;;;;;;27.98;20.55;;;;;;;18.58;100.00;99800.56;1756770;81;21038;-67
2022/09/30 10:23:51;;;;;;;23.18;18.00;;;;;;;18.61;100.00;99794.14;1756317;81;21177;-68
2022/09/30 10:26:26;;;;;;;27.95;19.70;;;;;;;18.61;100.00;99804.34;1748900;81;21069;-67
2022/09/30 10:29:00;;;;;;;24.70;16.60;;;;;;;18.74;100.00;99802.07;1696984;84;21264;-68
2022/09/30 10:31:42;;;;;;;26.42;18.98;;;;;;;18.79;100.00;99794.59;1697566;84;21561;-68
2022/09/30 10:34:28;;;;;;;28.95;20.27;;;;;;;18.85;100.00;99803.47;1697397;84;21404;-67
2022/09/30 10:36:56;;;;;;;27.37;20.48;;;;;;;18.88;100.00;99803.23;1697371;84;21077;-68
2022/09/30 10:39:26;;;;;;;32.05;20.57;;;;;;;18.90;100.00;99802.63;1697361;84;21052;-67
2022/09/30 10:42:09;;;;;;;33.07;22.73;;;;;;;18.97;100.00;99801.19;1697779;84;21201;-69
2022/09/30 10:44:50;;;;;;;32.15;23.92;;;;;;;19.17;100.00;99804.14;1697396;84;21080;-68
2022/09/30 10:47:21;;;;;;;30.52;22.87;;;;;;;19.36;100.00;99804.38;1697086;84;21144;-68
2022/09/30 10:50:05;;;;;;;30.05;22.45;;;;;;;19.42;100.00;99800.40;1697570;84;21086;-68
2022/09/30 10:52:37;;;;;;;25.65;19.32;;;;;;;19.55;100.00;99801.59;1697415;84;21073;-67
2022/09/30 10:55:06;;;;;;;25.55;19.25;;;;;;;19.69;100.00;99808.04;1696617;84;21290;-68
2022/09/30 10:57:37;;;;;;;25.92;20.23;;;;;;;19.77;100.00;99804.28;1697523;84;21057;-68
2022/09/30 11:00:11;;;;;;;35.45;23.47;;;;;;;19.91;100.00;99801.33;1697396;84;21121;-68
2022/09/30 11:03:08;;;;;;;29.57;21.33;;;;;;;20.10;100.00;99800.67;1697167;84;21557;-68
2022/09/30 11:05:38;;;;;;;29.80;20.95;;;;;;;20.23;100.00;99800.53;1697256;83;21132;-68
2022/09/30 11:08:36;;;;;;;34.08;21.55;;;;;;;20.42;100.00;99800.34;1697709;84;21184;-68
2022/09/30 11:11:19;;;;;;;29.00;22.27;;;;;;;20.50;100.00;99803.23;1685346;84;21047;-68
2022/09/30 11:14:11;;;;;;;32.28;21.23;;;;;;;20.52;100.00;99807.48;1667245;86;21016;-67
2022/09/30 11:17:04;;;;;;;29.15;21.77;;;;;;;20.47;100.00;99803.47;1740538;82;21071;-68
2022/09/30 11:19:55;;;;;;;27.42;20.35;;;;;;;20.64;100.00;99806.96;1740502;82;21013;-68
2022/09/30 11:22:48;;;;;;;26.25;18.80;;;;;;;20.82;100.00;99802.35;1738884;82;21121;-67
2022/09/30 11:25:19;;;;;;;27.50;18.67;;;;;;;20.91;100.00;99816.29;1739750;81;21504;-68
2022/09/30 11:28:08;;;;;;;22.20;16.93;;;;;;;20.95;100.00;99823.09;1739911;81;21040;-66
2022/09/30 11:30:53;;;;;;;28.62;19.45;;;;;;;20.92;100.00;99823.36;1692979;82;21049;-68
2022/09/30 11:33:31;;;;;;;27.93;20.20;;;;;;;20.71;100.00;99830.88;1739587;82;21040;-67
2022/09/30 11:36:31;;;;;;;24.50;19.42;;;;;;;20.63;100.00;99832.00;1739747;82;21781;-69
2022/09/30 11:39:03;;;;;;;25.23;19.45;;;;;;;20.47;100.00;99831.55;1739566;82;21608;-67
2022/09/30 11:41:37;;;;;;;27.62;18.15;;;;;;;20.29;100.00;99825.44;1739628;81;21037;-69
2022/09/30 11:44:35;;;;;;;23.60;16.87;;;;;;;20.24;100.00;99832.96;1730568;82;22026;-67
2022/09/30 11:47:20;;;;;;;32.60;20.55;;;;;;;20.25;100.00;99834.67;1710266;83;21084;-67
2022/09/30 11:50:13;;;;;;;23.57;17.65;;;;;;;20.20;100.00;99834.21;1710293;83;21866;-71